sensor_id;sensor_type;location;lat;lon;timestamp;pressure;altitude;pressure_sealevel;temperature;humidity
10518;BME280;5307;42.548;22.968;2022-07-01T00:00:50;93815.94;;;19.29;86.99
10518;BME280;5307;42.548;22.968;2022-07-01T00:03:17;93815.19;;;18.95;87.81
10518;BME280;5307;42.548;22.968;2022-07-01T00:05:44;93823.47;;;18.78;89.09
10518;BME280;5307;42.548;22.968;2022-07-01T00:08:11;93828.50;;;18.96;88.41
10518;BME280;5307;42.548;22.968;2022-07-01T00:10:37;93829.28;;;19.08;87.44
10518;BME280;5307;42.548;22.968;2022-07-01T00:13:06;93831.50;;;18.76;88.36
10518;BME280;5307;42.548;22.968;2022-07-01T00:15:33;93831.00;;;18.83;86.77
10518;BME280;5307;42.548;22.968;2022-07-01T00:17:59;93831.53;;;18.98;85.08
10518;BME280;5307;42.548;22.968;2022-07-01T00:20:26;93836.28;;;18.81;85.62
10518;BME280;5307;42.548;22.968;2022-07-01T00:22:53;93827.25;;;18.86;85.19
10518;BME280;5307;42.548;22.968;2022-07-01T00:25:20;93829.16;;;18.58;85.96
10518;BME280;5307;42.548;22.968;2022-07-01T00:27:47;93829.50;;;18.82;84.07
10518;BME280;5307;42.548;22.968;2022-07-01T00:30:15;93841.34;;;18.99;86.15
10518;BME280;5307;42.548;22.968;2022-07-01T00:32:42;93840.09;;;19.01;83.11
10518;BME280;5307;42.548;22.968;2022-07-01T00:35:09;93844.34;;;18.74;84.88
10518;BME280;5307;42.548;22.968;2022-07-01T00:37:38;93848.84;;;18.65;85.67
10518;BME280;5307;42.548;22.968;2022-07-01T00:40:06;93855.81;;;18.55;86.53
10518;BME280;5307;42.548;22.968;2022-07-01T00:42:33;93851.88;;;18.67;85.29
10518;BME280;5307;42.548;22.968;2022-07-01T00:45:06;93851.03;;;18.45;86.02
10518;BME280;5307;42.548;22.968;2022-07-01T00:47:35;93852.78;;;18.42;86.27
10518;BME280;5307;42.548;22.968;2022-07-01T00:50:05;93857.59;;;18.53;85.79
10518;BME280;5307;42.548;22.968;2022-07-01T00:52:33;93854.59;;;18.62;84.83
10518;BME280;5307;42.548;22.968;2022-07-01T00:55:02;93854.06;;;18.47;85.82
10518;BME280;5307;42.548;22.968;2022-07-01T00:57:30;93861.91;;;18.71;87.09
10518;BME280;5307;42.548;22.968;2022-07-01T00:59:57;93865.19;;;18.63;84.58
10518;BME280;5307;42.548;22.968;2022-07-01T01:02:24;93867.63;;;18.45;85.17
10518;BME280;5307;42.548;22.968;2022-07-01T01:04:52;93869.16;;;18.51;85.84
10518;BME280;5307;42.548;22.968;2022-07-01T01:07:19;93869.16;;;18.57;84.77
10518;BME280;5307;42.548;22.968;2022-07-01T01:09:46;93858.59;;;18.50;85.19
10518;BME280;5307;42.548;22.968;2022-07-01T01:12:14;93867.38;;;18.48;85.48
10518;BME280;5307;42.548;22.968;2022-07-01T01:14:44;93859.06;;;18.43;87.18
10518;BME280;5307;42.548;22.968;2022-07-01T01:17:11;93869.84;;;18.40;87.57
10518;BME280;5307;42.548;22.968;2022-07-01T01:19:38;93862.34;;;18.47;88.85
10518;BME280;5307;42.548;22.968;2022-07-01T01:22:07;93871.41;;;18.47;88.92
10518;BME280;5307;42.548;22.968;2022-07-01T01:24:34;93865.28;;;18.26;87.16
10518;BME280;5307;42.548;22.968;2022-07-01T01:27:02;93878.13;;;17.81;90.48
10518;BME280;5307;42.548;22.968;2022-07-01T01:29:29;93872.63;;;17.81;90.21
10518;BME280;5307;42.548;22.968;2022-07-01T01:31:55;93880.78;;;18.07;89.59
10518;BME280;5307;42.548;22.968;2022-07-01T01:34:22;93884.13;;;18.17;88.04
10518;BME280;5307;42.548;22.968;2022-07-01T01:36:49;93887.91;;;18.25;87.60
10518;BME280;5307;42.548;22.968;2022-07-01T01:39:18;93890.28;;;17.95;88.92
10518;BME280;5307;42.548;22.968;2022-07-01T01:41:45;93883.16;;;17.77;90.51
10518;BME280;5307;42.548;22.968;2022-07-01T01:44:13;93882.97;;;17.92;89.82
10518;BME280;5307;42.548;22.968;2022-07-01T01:46:39;93886.72;;;17.89;88.60
10518;BME280;5307;42.548;22.968;2022-07-01T01:49:06;93883.47;;;17.90;89.27
10518;BME280;5307;42.548;22.968;2022-07-01T01:51:34;93888.19;;;17.84;89.39
10518;BME280;5307;42.548;22.968;2022-07-01T01:54:01;93890.47;;;17.86;89.71
10518;BME280;5307;42.548;22.968;2022-07-01T01:56:29;93891.88;;;17.70;90.22
10518;BME280;5307;42.548;22.968;2022-07-01T01:58:56;93885.97;;;17.57;90.69
10518;BME280;5307;42.548;22.968;2022-07-01T02:01:24;93893.88;;;17.69;90.26
10518;BME280;5307;42.548;22.968;2022-07-01T02:03:51;93888.00;;;17.56;90.81
10518;BME280;5307;42.548;22.968;2022-07-01T02:06:20;93898.91;;;17.71;90.31
10518;BME280;5307;42.548;22.968;2022-07-01T02:08:47;93874.94;;;17.57;90.81
10518;BME280;5307;42.548;22.968;2022-07-01T02:11:14;93886.75;;;17.57;90.78
10518;BME280;5307;42.548;22.968;2022-07-01T02:13:42;93892.38;;;17.68;90.60
10518;BME280;5307;42.548;22.968;2022-07-01T02:16:09;93897.66;;;17.72;89.58
10518;BME280;5307;42.548;22.968;2022-07-01T02:18:37;93903.56;;;17.59;90.29
10518;BME280;5307;42.548;22.968;2022-07-01T02:21:04;93906.88;;;17.63;90.76
10518;BME280;5307;42.548;22.968;2022-07-01T02:23:30;93908.84;;;17.57;90.65
10518;BME280;5307;42.548;22.968;2022-07-01T02:25:58;93902.56;;;17.57;91.36
10518;BME280;5307;42.548;22.968;2022-07-01T02:28:25;93914.47;;;17.68;90.11
10518;BME280;5307;42.548;22.968;2022-07-01T02:30:53;93915.00;;;17.72;89.46
10518;BME280;5307;42.548;22.968;2022-07-01T02:33:20;93913.28;;;17.75;88.80
10518;BME280;5307;42.548;22.968;2022-07-01T02:35:47;93915.03;;;17.78;89.11
10518;BME280;5307;42.548;22.968;2022-07-01T02:38:14;93918.38;;;17.56;89.06
10518;BME280;5307;42.548;22.968;2022-07-01T02:40:41;93926.44;;;17.60;89.21
10518;BME280;5307;42.548;22.968;2022-07-01T02:43:08;93924.88;;;17.53;89.34
10518;BME280;5307;42.548;22.968;2022-07-01T02:45:34;93926.22;;;17.32;90.61
10518;BME280;5307;42.548;22.968;2022-07-01T02:48:03;93923.44;;;17.63;89.20
10518;BME280;5307;42.548;22.968;2022-07-01T02:50:30;93925.03;;;17.44;89.94
10518;BME280;5307;42.548;22.968;2022-07-01T02:52:57;93916.69;;;17.33;90.01
10518;BME280;5307;42.548;22.968;2022-07-01T02:55:24;93931.66;;;17.52;89.93
10518;BME280;5307;42.548;22.968;2022-07-01T02:57:51;93934.84;;;17.45;90.19
10518;BME280;5307;42.548;22.968;2022-07-01T03:00:19;93938.59;;;17.42;90.55
10518;BME280;5307;42.548;22.968;2022-07-01T03:02:46;93936.69;;;17.54;89.26
10518;BME280;5307;42.548;22.968;2022-07-01T03:05:14;93939.53;;;17.33;90.04
10518;BME280;5307;42.548;22.968;2022-07-01T03:07:41;93936.53;;;17.37;90.12
10518;BME280;5307;42.548;22.968;2022-07-01T03:10:09;93937.59;;;17.45;90.87
10518;BME280;5307;42.548;22.968;2022-07-01T03:12:36;93940.38;;;17.45;89.89
10518;BME280;5307;42.548;22.968;2022-07-01T03:15:07;93935.97;;;17.27;91.13
10518;BME280;5307;42.548;22.968;2022-07-01T03:17:37;93941.94;;;17.20;90.96
10518;BME280;5307;42.548;22.968;2022-07-01T03:20:06;93935.16;;;17.21;91.24
10518;BME280;5307;42.548;22.968;2022-07-01T03:22:35;93940.91;;;17.17;91.35
10518;BME280;5307;42.548;22.968;2022-07-01T03:25:03;93935.38;;;17.17;91.70
10518;BME280;5307;42.548;22.968;2022-07-01T03:27:31;93940.28;;;17.34;90.20
10518;BME280;5307;42.548;22.968;2022-07-01T03:29:58;93952.59;;;17.33;90.59
10518;BME280;5307;42.548;22.968;2022-07-01T03:32:25;93949.59;;;17.36;90.04
10518;BME280;5307;42.548;22.968;2022-07-01T03:34:53;93951.44;;;17.19;91.49
10518;BME280;5307;42.548;22.968;2022-07-01T03:37:21;93951.44;;;17.19;91.58
10518;BME280;5307;42.548;22.968;2022-07-01T03:39:50;93943.22;;;17.25;91.47
10518;BME280;5307;42.548;22.968;2022-07-01T03:42:21;93939.56;;;17.39;90.19
10518;BME280;5307;42.548;22.968;2022-07-01T03:44:48;93951.34;;;17.34;90.77
10518;BME280;5307;42.548;22.968;2022-07-01T03:47:15;93953.38;;;17.39;90.05
10518;BME280;5307;42.548;22.968;2022-07-01T03:49:41;93956.72;;;17.48;89.96
10518;BME280;5307;42.548;22.968;2022-07-01T03:52:08;93951.00;;;17.58;90.21
10518;BME280;5307;42.548;22.968;2022-07-01T03:54:35;93955.59;;;17.66;89.30
10518;BME280;5307;42.548;22.968;2022-07-01T03:57:06;93942.78;;;17.63;89.00
10518;BME280;5307;42.548;22.968;2022-07-01T03:59:36;93956.34;;;17.61;90.30
10518;BME280;5307;42.548;22.968;2022-07-01T04:02:04;93960.50;;;17.51;91.52
10518;BME280;5307;42.548;22.968;2022-07-01T04:04:31;93958.78;;;17.54;91.41
10518;BME280;5307;42.548;22.968;2022-07-01T04:07:00;93964.88;;;17.63;91.57
10518;BME280;5307;42.548;22.968;2022-07-01T04:09:28;93959.63;;;17.65;91.79
10518;BME280;5307;42.548;22.968;2022-07-01T04:11:55;93958.97;;;17.76;91.83
10518;BME280;5307;42.548;22.968;2022-07-01T04:14:25;93961.03;;;17.87;91.54
10518;BME280;5307;42.548;22.968;2022-07-01T04:16:52;93965.16;;;17.97;89.30
10518;BME280;5307;42.548;22.968;2022-07-01T04:19:20;93944.28;;;17.96;88.63
10518;BME280;5307;42.548;22.968;2022-07-01T04:21:47;93960.03;;;18.21;87.99
10518;BME280;5307;42.548;22.968;2022-07-01T04:24:31;93965.34;;;18.30;87.43
10518;BME280;5307;42.548;22.968;2022-07-01T04:26:59;93968.06;;;18.19;86.94
10518;BME280;5307;42.548;22.968;2022-07-01T04:29:28;93954.19;;;18.14;87.48
10518;BME280;5307;42.548;22.968;2022-07-01T04:31:56;93966.81;;;18.20;87.09
10518;BME280;5307;42.548;22.968;2022-07-01T04:34:23;93953.63;;;18.47;86.25
10518;BME280;5307;42.548;22.968;2022-07-01T04:36:50;93967.72;;;18.54;85.28
10518;BME280;5307;42.548;22.968;2022-07-01T04:39:17;93953.75;;;18.80;84.89
10518;BME280;5307;42.548;22.968;2022-07-01T04:41:44;93963.41;;;19.07;83.42
10518;BME280;5307;42.548;22.968;2022-07-01T04:44:29;93955.63;;;19.28;82.95
10518;BME280;5307;42.548;22.968;2022-07-01T04:46:56;93963.22;;;19.50;81.03
10518;BME280;5307;42.548;22.968;2022-07-01T04:49:23;93960.72;;;19.69;80.46
10518;BME280;5307;42.548;22.968;2022-07-01T04:51:50;93957.19;;;19.68;80.07
10518;BME280;5307;42.548;22.968;2022-07-01T04:54:17;93959.94;;;20.07;78.56
10518;BME280;5307;42.548;22.968;2022-07-01T04:56:44;93961.56;;;20.66;75.27
10518;BME280;5307;42.548;22.968;2022-07-01T04:59:11;93965.66;;;20.54;75.33
10518;BME280;5307;42.548;22.968;2022-07-01T05:07:58;93967.00;;;21.47;72.64
10518;BME280;5307;42.548;22.968;2022-07-01T05:10:25;93965.06;;;21.72;71.38
10518;BME280;5307;42.548;22.968;2022-07-01T05:12:53;93978.50;;;21.21;71.94
10518;BME280;5307;42.548;22.968;2022-07-01T05:15:20;93975.63;;;21.38;71.58
10518;BME280;5307;42.548;22.968;2022-07-01T05:17:47;93981.25;;;21.68;70.95
10518;BME280;5307;42.548;22.968;2022-07-01T05:20:31;93973.78;;;21.87;70.02
10518;BME280;5307;42.548;22.968;2022-07-01T05:23:18;93981.03;;;22.50;68.36
10518;BME280;5307;42.548;22.968;2022-07-01T05:25:44;93978.78;;;22.48;68.65
10518;BME280;5307;42.548;22.968;2022-07-01T05:28:11;93984.25;;;22.60;66.46
10518;BME280;5307;42.548;22.968;2022-07-01T05:30:38;93984.88;;;22.71;66.95
10518;BME280;5307;42.548;22.968;2022-07-01T05:33:06;93979.56;;;21.89;69.78
10518;BME280;5307;42.548;22.968;2022-07-01T05:35:33;93977.66;;;22.38;69.21
10518;BME280;5307;42.548;22.968;2022-07-01T05:38:00;93980.41;;;22.87;68.14
10518;BME280;5307;42.548;22.968;2022-07-01T05:40:28;93977.94;;;23.21;66.11
10518;BME280;5307;42.548;22.968;2022-07-01T05:42:55;93977.28;;;22.72;66.61
10518;BME280;5307;42.548;22.968;2022-07-01T05:45:22;93981.34;;;23.33;66.18
10518;BME280;5307;42.548;22.968;2022-07-01T05:47:49;93980.75;;;23.40;65.16
10518;BME280;5307;42.548;22.968;2022-07-01T05:50:15;93982.69;;;23.07;66.56
10518;BME280;5307;42.548;22.968;2022-07-01T05:52:42;93978.34;;;23.12;65.79
10518;BME280;5307;42.548;22.968;2022-07-01T05:55:10;93978.56;;;23.52;64.45
10518;BME280;5307;42.548;22.968;2022-07-01T05:57:38;93978.91;;;24.12;62.30
10518;BME280;5307;42.548;22.968;2022-07-01T06:00:06;93979.19;;;24.41;63.28
10518;BME280;5307;42.548;22.968;2022-07-01T06:02:34;93975.00;;;25.13;61.89
10518;BME280;5307;42.548;22.968;2022-07-01T06:05:01;93980.28;;;24.51;59.91
10518;BME280;5307;42.548;22.968;2022-07-01T06:07:28;93977.25;;;24.62;61.76
10518;BME280;5307;42.548;22.968;2022-07-01T06:09:55;93986.28;;;24.55;61.05
10518;BME280;5307;42.548;22.968;2022-07-01T06:12:22;93979.81;;;24.34;62.58
10518;BME280;5307;42.548;22.968;2022-07-01T06:14:50;93977.47;;;23.74;61.54
10518;BME280;5307;42.548;22.968;2022-07-01T06:17:18;93978.75;;;24.63;62.10
10518;BME280;5307;42.548;22.968;2022-07-01T06:19:45;93976.63;;;24.82;62.60
10518;BME280;5307;42.548;22.968;2022-07-01T06:22:12;93974.63;;;24.24;60.65
10518;BME280;5307;42.548;22.968;2022-07-01T06:24:42;93977.69;;;23.76;61.68
10518;BME280;5307;42.548;22.968;2022-07-01T06:27:10;93977.06;;;24.73;59.69
10518;BME280;5307;42.548;22.968;2022-07-01T06:29:36;93975.34;;;24.57;60.12
10518;BME280;5307;42.548;22.968;2022-07-01T06:32:06;93975.00;;;24.61;59.51
10518;BME280;5307;42.548;22.968;2022-07-01T06:34:33;93973.31;;;25.44;56.99
10518;BME280;5307;42.548;22.968;2022-07-01T06:37:00;93982.22;;;24.96;59.47
10518;BME280;5307;42.548;22.968;2022-07-01T06:39:27;93974.38;;;25.55;59.12
10518;BME280;5307;42.548;22.968;2022-07-01T06:41:54;93968.00;;;25.88;56.03
10518;BME280;5307;42.548;22.968;2022-07-01T06:44:21;93967.84;;;25.39;57.22
10518;BME280;5307;42.548;22.968;2022-07-01T06:46:48;93962.75;;;26.26;55.74
10518;BME280;5307;42.548;22.968;2022-07-01T06:49:21;93965.09;;;25.94;56.05
10518;BME280;5307;42.548;22.968;2022-07-01T06:51:50;93966.69;;;26.31;54.96
10518;BME280;5307;42.548;22.968;2022-07-01T06:54:17;93959.53;;;26.43;53.08
10518;BME280;5307;42.548;22.968;2022-07-01T06:56:44;93961.03;;;26.44;54.16
10518;BME280;5307;42.548;22.968;2022-07-01T06:59:11;93958.97;;;26.66;53.52
10518;BME280;5307;42.548;22.968;2022-07-01T07:01:37;93957.78;;;26.12;54.45
10518;BME280;5307;42.548;22.968;2022-07-01T07:04:04;93965.09;;;26.15;53.36
10518;BME280;5307;42.548;22.968;2022-07-01T07:06:33;93963.78;;;26.16;54.04
10518;BME280;5307;42.548;22.968;2022-07-01T07:08:59;93966.94;;;25.91;53.17
10518;BME280;5307;42.548;22.968;2022-07-01T07:11:26;93970.94;;;26.74;53.95
10518;BME280;5307;42.548;22.968;2022-07-01T07:13:54;93973.81;;;27.10;51.49
10518;BME280;5307;42.548;22.968;2022-07-01T07:16:21;93962.41;;;27.59;51.09
10518;BME280;5307;42.548;22.968;2022-07-01T07:18:48;93970.34;;;26.96;50.51
10518;BME280;5307;42.548;22.968;2022-07-01T07:21:16;93967.81;;;27.57;49.70
10518;BME280;5307;42.548;22.968;2022-07-01T07:23:44;93977.72;;;28.17;47.73
10518;BME280;5307;42.548;22.968;2022-07-01T07:26:11;93978.97;;;27.93;48.77
10518;BME280;5307;42.548;22.968;2022-07-01T07:28:38;93962.84;;;27.86;50.12
10518;BME280;5307;42.548;22.968;2022-07-01T07:31:05;93956.91;;;28.74;50.28
10518;BME280;5307;42.548;22.968;2022-07-01T07:33:32;93968.94;;;27.54;49.42
10518;BME280;5307;42.548;22.968;2022-07-01T07:35:59;93963.59;;;27.87;49.61
10518;BME280;5307;42.548;22.968;2022-07-01T07:38:26;93964.66;;;27.61;50.07
10518;BME280;5307;42.548;22.968;2022-07-01T07:40:54;93971.38;;;28.32;46.40
10518;BME280;5307;42.548;22.968;2022-07-01T07:43:21;93964.25;;;28.54;50.79
10518;BME280;5307;42.548;22.968;2022-07-01T07:45:47;93965.13;;;27.95;47.64
10518;BME280;5307;42.548;22.968;2022-07-01T07:48:14;93968.41;;;27.63;46.93
10518;BME280;5307;42.548;22.968;2022-07-01T07:50:41;93953.22;;;28.33;45.85
10518;BME280;5307;42.548;22.968;2022-07-01T07:53:08;93958.06;;;28.63;44.86
10518;BME280;5307;42.548;22.968;2022-07-01T07:55:35;93955.78;;;28.69;45.78
10518;BME280;5307;42.548;22.968;2022-07-01T07:58:04;93954.69;;;28.26;47.83
10518;BME280;5307;42.548;22.968;2022-07-01T08:00:31;93955.94;;;29.02;48.35
10518;BME280;5307;42.548;22.968;2022-07-01T08:02:58;93954.66;;;28.11;45.01
10518;BME280;5307;42.548;22.968;2022-07-01T08:05:25;93957.19;;;29.23;45.99
10518;BME280;5307;42.548;22.968;2022-07-01T08:07:51;93950.56;;;28.58;45.20
10518;BME280;5307;42.548;22.968;2022-07-01T08:10:19;93949.25;;;28.59;45.41
10518;BME280;5307;42.548;22.968;2022-07-01T08:12:45;93945.09;;;28.75;46.79
10518;BME280;5307;42.548;22.968;2022-07-01T08:15:14;93941.38;;;28.42;45.88
10518;BME280;5307;42.548;22.968;2022-07-01T08:17:40;93938.19;;;28.61;45.17
10518;BME280;5307;42.548;22.968;2022-07-01T08:20:08;93933.13;;;28.75;47.76
10518;BME280;5307;42.548;22.968;2022-07-01T08:22:36;93927.66;;;28.92;48.04
10518;BME280;5307;42.548;22.968;2022-07-01T08:25:03;93932.41;;;29.70;45.96
10518;BME280;5307;42.548;22.968;2022-07-01T08:27:30;93931.19;;;28.85;45.97
10518;BME280;5307;42.548;22.968;2022-07-01T08:29:57;93940.41;;;29.81;49.40
10518;BME280;5307;42.548;22.968;2022-07-01T08:32:25;93931.78;;;29.79;43.88
10518;BME280;5307;42.548;22.968;2022-07-01T08:34:53;93927.47;;;29.78;45.14
10518;BME280;5307;42.548;22.968;2022-07-01T08:37:20;93938.41;;;29.26;45.14
10518;BME280;5307;42.548;22.968;2022-07-01T08:39:47;93930.63;;;29.42;46.82
10518;BME280;5307;42.548;22.968;2022-07-01T08:42:14;93927.22;;;29.11;46.07
10518;BME280;5307;42.548;22.968;2022-07-01T08:44:41;93928.59;;;28.94;46.51
10518;BME280;5307;42.548;22.968;2022-07-01T08:47:11;93930.06;;;29.51;46.75
10518;BME280;5307;42.548;22.968;2022-07-01T08:49:39;93929.13;;;29.81;47.19
10518;BME280;5307;42.548;22.968;2022-07-01T08:52:06;93925.78;;;29.42;47.36
10518;BME280;5307;42.548;22.968;2022-07-01T08:54:35;93933.72;;;30.01;48.44
10518;BME280;5307;42.548;22.968;2022-07-01T08:57:03;93925.13;;;30.66;46.74
10518;BME280;5307;42.548;22.968;2022-07-01T08:59:30;93917.09;;;30.80;45.63
10518;BME280;5307;42.548;22.968;2022-07-01T09:02:00;93924.81;;;30.80;46.00
10518;BME280;5307;42.548;22.968;2022-07-01T09:04:27;93928.91;;;30.61;47.13
10518;BME280;5307;42.548;22.968;2022-07-01T09:07:04;93925.94;;;30.59;44.37
10518;BME280;5307;42.548;22.968;2022-07-01T09:09:34;93917.19;;;30.72;45.11
10518;BME280;5307;42.548;22.968;2022-07-01T09:12:02;93924.31;;;30.91;47.00
10518;BME280;5307;42.548;22.968;2022-07-01T09:14:31;93917.19;;;29.73;45.49
10518;BME280;5307;42.548;22.968;2022-07-01T09:16:59;93922.16;;;30.82;45.45
10518;BME280;5307;42.548;22.968;2022-07-01T09:19:32;93928.34;;;29.88;46.50
10518;BME280;5307;42.548;22.968;2022-07-01T09:22:01;93915.34;;;30.67;44.12
10518;BME280;5307;42.548;22.968;2022-07-01T09:24:31;93926.97;;;31.06;47.79
10518;BME280;5307;42.548;22.968;2022-07-01T09:27:00;93923.50;;;31.15;45.77
10518;BME280;5307;42.548;22.968;2022-07-01T09:29:28;93922.34;;;31.18;41.61
10518;BME280;5307;42.548;22.968;2022-07-01T09:31:57;93919.69;;;31.03;44.88
10518;BME280;5307;42.548;22.968;2022-07-01T09:34:24;93908.16;;;30.74;45.17
10518;BME280;5307;42.548;22.968;2022-07-01T09:36:52;93922.28;;;31.26;44.57
10518;BME280;5307;42.548;22.968;2022-07-01T09:39:21;93904.91;;;30.78;41.92
10518;BME280;5307;42.548;22.968;2022-07-01T09:41:47;93916.63;;;31.26;46.41
10518;BME280;5307;42.548;22.968;2022-07-01T09:44:15;93912.69;;;31.04;40.18
10518;BME280;5307;42.548;22.968;2022-07-01T09:46:53;93900.59;;;30.77;43.31
10518;BME280;5307;42.548;22.968;2022-07-01T09:49:20;93901.75;;;31.08;41.17
10518;BME280;5307;42.548;22.968;2022-07-01T09:51:49;93900.69;;;30.69;41.21
10518;BME280;5307;42.548;22.968;2022-07-01T09:54:16;93905.16;;;31.68;43.43
10518;BME280;5307;42.548;22.968;2022-07-01T09:56:45;93895.59;;;31.37;42.67
10518;BME280;5307;42.548;22.968;2022-07-01T09:59:12;93895.63;;;31.19;41.89
10518;BME280;5307;42.548;22.968;2022-07-01T10:01:39;93897.25;;;31.05;39.36
10518;BME280;5307;42.548;22.968;2022-07-01T10:04:07;93891.97;;;31.26;43.28
10518;BME280;5307;42.548;22.968;2022-07-01T10:07:06;93888.50;;;31.45;41.62
10518;BME280;5307;42.548;22.968;2022-07-01T10:09:50;93884.19;;;31.44;39.63
10518;BME280;5307;42.548;22.968;2022-07-01T10:12:36;93878.47;;;31.79;41.06
10518;BME280;5307;42.548;22.968;2022-07-01T10:15:07;93880.41;;;31.32;40.37
10518;BME280;5307;42.548;22.968;2022-07-01T10:17:36;93883.41;;;31.61;41.22
10518;BME280;5307;42.548;22.968;2022-07-01T10:20:08;93877.97;;;31.73;41.46
10518;BME280;5307;42.548;22.968;2022-07-01T10:22:36;93877.75;;;31.61;39.31
10518;BME280;5307;42.548;22.968;2022-07-01T10:25:29;93877.91;;;31.63;39.55
10518;BME280;5307;42.548;22.968;2022-07-01T10:28:25;93870.03;;;31.35;37.80
10518;BME280;5307;42.548;22.968;2022-07-01T10:30:55;93867.31;;;31.54;40.70
10518;BME280;5307;42.548;22.968;2022-07-01T10:33:34;93871.25;;;31.68;39.66
10518;BME280;5307;42.548;22.968;2022-07-01T10:36:09;93858.44;;;31.67;39.03
10518;BME280;5307;42.548;22.968;2022-07-01T10:39:09;93859.31;;;31.87;36.46
10518;BME280;5307;42.548;22.968;2022-07-01T10:41:38;93865.19;;;31.99;39.90
10518;BME280;5307;42.548;22.968;2022-07-01T10:44:08;93851.91;;;31.65;37.24
10518;BME280;5307;42.548;22.968;2022-07-01T10:46:39;93862.66;;;32.03;37.30
10518;BME280;5307;42.548;22.968;2022-07-01T10:49:09;93851.66;;;32.07;37.73
10518;BME280;5307;42.548;22.968;2022-07-01T10:51:55;93848.22;;;32.08;38.16
10518;BME280;5307;42.548;22.968;2022-07-01T10:54:46;93851.97;;;31.74;38.81
10518;BME280;5307;42.548;22.968;2022-07-01T10:57:24;93852.72;;;32.21;36.92
10518;BME280;5307;42.548;22.968;2022-07-01T10:59:56;93830.44;;;31.79;40.90
10518;BME280;5307;42.548;22.968;2022-07-01T11:02:42;93844.31;;;31.84;37.71
10518;BME280;5307;42.548;22.968;2022-07-01T11:05:10;93845.00;;;32.12;40.29
10518;BME280;5307;42.548;22.968;2022-07-01T11:07:39;93847.31;;;31.96;38.74
10518;BME280;5307;42.548;22.968;2022-07-01T11:10:08;93845.06;;;31.85;38.74
10518;BME280;5307;42.548;22.968;2022-07-01T11:12:36;93837.56;;;31.53;36.45
10518;BME280;5307;42.548;22.968;2022-07-01T11:15:06;93836.53;;;31.75;38.09
10518;BME280;5307;42.548;22.968;2022-07-01T11:17:34;93828.63;;;31.47;36.89
10518;BME280;5307;42.548;22.968;2022-07-01T11:20:01;93839.75;;;31.72;35.46
10518;BME280;5307;42.548;22.968;2022-07-01T11:22:33;93827.72;;;31.71;35.79
10518;BME280;5307;42.548;22.968;2022-07-01T11:25:03;93823.88;;;31.40;39.20
10518;BME280;5307;42.548;22.968;2022-07-01T11:27:30;93830.47;;;31.25;37.75
10518;BME280;5307;42.548;22.968;2022-07-01T11:29:59;93823.47;;;31.53;38.30
10518;BME280;5307;42.548;22.968;2022-07-01T11:32:29;93831.19;;;31.52;39.54
10518;BME280;5307;42.548;22.968;2022-07-01T11:34:56;93825.97;;;31.49;39.96
10518;BME280;5307;42.548;22.968;2022-07-01T11:37:27;93813.03;;;31.46;36.86
10518;BME280;5307;42.548;22.968;2022-07-01T11:40:14;93825.66;;;31.45;38.81
10518;BME280;5307;42.548;22.968;2022-07-01T11:42:41;93814.00;;;31.58;38.87
10518;BME280;5307;42.548;22.968;2022-07-01T11:45:09;93811.69;;;31.47;37.64
10518;BME280;5307;42.548;22.968;2022-07-01T11:47:37;93815.31;;;31.57;39.11
10518;BME280;5307;42.548;22.968;2022-07-01T11:50:04;93805.09;;;31.35;41.41
10518;BME280;5307;42.548;22.968;2022-07-01T11:52:31;93811.69;;;31.20;36.61
10518;BME280;5307;42.548;22.968;2022-07-01T11:54:58;93804.72;;;31.48;39.48
10518;BME280;5307;42.548;22.968;2022-07-01T11:57:26;93805.22;;;31.10;36.48
10518;BME280;5307;42.548;22.968;2022-07-01T11:59:55;93805.53;;;31.31;35.53
10518;BME280;5307;42.548;22.968;2022-07-01T12:02:23;93802.41;;;31.10;35.13
10518;BME280;5307;42.548;22.968;2022-07-01T12:04:52;93802.66;;;31.04;36.99
10518;BME280;5307;42.548;22.968;2022-07-01T12:07:20;93804.31;;;31.07;38.46
10518;BME280;5307;42.548;22.968;2022-07-01T12:09:48;93797.31;;;30.98;36.63
10518;BME280;5307;42.548;22.968;2022-07-01T12:12:15;93793.91;;;31.00;37.37
10518;BME280;5307;42.548;22.968;2022-07-01T12:14:49;93785.56;;;31.19;38.72
10518;BME280;5307;42.548;22.968;2022-07-01T12:17:17;93789.88;;;31.20;35.95
10518;BME280;5307;42.548;22.968;2022-07-01T12:19:45;93802.81;;;31.06;35.29
10518;BME280;5307;42.548;22.968;2022-07-01T12:22:16;93795.06;;;30.97;36.48
10518;BME280;5307;42.548;22.968;2022-07-01T12:24:44;93793.22;;;30.92;37.57
10518;BME280;5307;42.548;22.968;2022-07-01T12:27:11;93788.28;;;30.83;36.05
10518;BME280;5307;42.548;22.968;2022-07-01T12:29:52;93790.28;;;30.72;35.70
10518;BME280;5307;42.548;22.968;2022-07-01T12:32:21;93786.75;;;30.99;39.91
10518;BME280;5307;42.548;22.968;2022-07-01T12:34:50;93784.63;;;30.90;35.16
10518;BME280;5307;42.548;22.968;2022-07-01T12:37:21;93785.28;;;30.98;39.12
10518;BME280;5307;42.548;22.968;2022-07-01T12:39:53;93785.97;;;30.71;36.00
10518;BME280;5307;42.548;22.968;2022-07-01T12:42:25;93778.94;;;30.63;36.27
10518;BME280;5307;42.548;22.968;2022-07-01T12:44:54;93779.84;;;30.83;37.89
10518;BME280;5307;42.548;22.968;2022-07-01T12:47:24;93766.25;;;30.71;35.30
10518;BME280;5307;42.548;22.968;2022-07-01T12:50:11;93767.78;;;30.82;36.85
10518;BME280;5307;42.548;22.968;2022-07-01T12:52:41;93768.16;;;30.96;36.72
10518;BME280;5307;42.548;22.968;2022-07-01T12:55:15;93766.34;;;30.91;36.86
10518;BME280;5307;42.548;22.968;2022-07-01T12:57:43;93763.06;;;30.67;35.54
10518;BME280;5307;42.548;22.968;2022-07-01T13:00:10;93759.50;;;30.84;37.24
10518;BME280;5307;42.548;22.968;2022-07-01T13:02:37;93767.59;;;30.97;37.57
10518;BME280;5307;42.548;22.968;2022-07-01T13:05:04;93757.59;;;30.87;36.96
10518;BME280;5307;42.548;22.968;2022-07-01T13:07:32;93757.09;;;30.81;37.98
10518;BME280;5307;42.548;22.968;2022-07-01T13:10:00;93762.00;;;30.63;35.83
10518;BME280;5307;42.548;22.968;2022-07-01T13:12:27;93744.78;;;30.41;36.21
10518;BME280;5307;42.548;22.968;2022-07-01T13:14:54;93750.38;;;30.59;37.12